Time;durP1;ratioP1;P1;durP2;ratioP2;P2;SDS_P1;SDS_P2;PMS_P1;PMS_P2;Temp;Humidity;BMP_temperature;BMP_pressure;BME280_temperature;BME280_humidity;BME280_pressure;Samples;Min_cycle;Max_cycle;Signal;HPM_P1;HPM_P2
2022/11/19 07:08:05;;;;;;;25.95;14.40;;;-3.90;99.90;;;;;;5107336;27;20437;-39
2022/11/19 07:10:32;;;;;;;26.35;15.13;;;-3.90;99.90;;;;;;5104681;27;20040;-39
2022/11/19 07:12:57;;;;;;;27.75;13.40;;;-3.90;99.90;;;;;;5104810;28;20020;-40
2022/11/19 07:15:23;;;;;;;22.27;13.07;;;-3.90;99.90;;;;;;5101987;28;20020;-40
2022/11/19 07:17:48;;;;;;;26.50;13.20;;;-4.00;99.90;;;;;;5105836;28;20016;-39
2022/11/19 07:20:14;;;;;;;26.70;14.27;;;-3.90;99.90;;;;;;5123340;28;20112;-39
2022/11/19 07:22:40;;;;;;;29.27;14.07;;;-3.90;99.90;;;;;;5107488;28;20069;-39
2022/11/19 07:25:06;;;;;;;26.00;13.60;;;-3.90;99.90;;;;;;5097560;28;20692;-40
2022/11/19 07:27:32;;;;;;;25.90;13.73;;;-3.90;99.90;;;;;;5121315;27;20028;-39
2022/11/19 07:29:57;;;;;;;28.48;14.52;;;-3.90;99.90;;;;;;5106229;28;20024;-39
2022/11/19 07:32:23;;;;;;;24.83;12.48;;;-3.90;99.90;;;;;;5105426;28;20059;-39
2022/11/19 07:34:48;;;;;;;28.73;14.95;;;-4.00;99.90;;;;;;5106813;28;20036;-39
2022/11/19 07:37:14;;;;;;;25.23;13.40;;;-3.90;99.90;;;;;;5105414;28;20521;-39
2022/11/19 07:39:39;;;;;;;26.08;13.95;;;-3.90;99.90;;;;;;5088366;28;20027;-39
2022/11/19 07:44:48;;;;;;;30.08;15.82;;;-3.90;99.90;;;;;;5107516;28;20026;-40
2022/11/19 07:47:14;;;;;;;28.55;14.25;;;-3.80;99.90;;;;;;5106442;28;20465;-39
2022/11/19 07:49:39;;;;;;;30.50;14.75;;;-3.70;99.90;;;;;;5106315;28;20743;-39
2022/11/19 07:52:05;;;;;;;29.80;16.23;;;-3.70;99.90;;;;;;5106419;28;20027;-39
2022/11/19 07:54:30;;;;;;;29.63;15.77;;;-3.60;99.90;;;;;;5106749;28;20110;-39
2022/11/19 07:56:56;;;;;;;29.35;14.18;;;-3.60;99.90;;;;;;5109552;28;20422;-39
2022/11/19 07:59:21;;;;;;;24.98;13.88;;;-3.50;99.90;;;;;;5106440;28;20027;-39
2022/11/19 08:01:47;;;;;;;28.08;14.35;;;-3.50;99.90;;;;;;5093765;28;20050;-39
2022/11/19 08:04:12;;;;;;;33.63;15.60;;;-3.50;99.90;;;;;;5087289;28;20039;-39
2022/11/19 08:06:38;;;;;;;26.17;14.13;;;-3.40;99.90;;;;;;5106418;28;20406;-39
2022/11/19 08:09:04;;;;;;;32.10;15.18;;;-3.40;99.90;;;;;;5092055;28;20024;-39
2022/11/19 08:11:30;;;;;;;25.52;13.55;;;-3.30;99.90;;;;;;5092486;28;20032;-39
2022/11/19 08:14:00;;;;;;;31.30;13.93;;;-3.30;99.90;;;;;;5092707;28;20043;-40
2022/11/19 08:19:13;;;;;;;32.67;14.55;;;-3.20;99.90;;;;;;5092112;28;20088;-40
2022/11/19 08:21:40;;;;;;;32.28;15.05;;;-3.20;99.90;;;;;;5091863;28;20024;-40
2022/11/19 08:24:07;;;;;;;28.13;14.57;;;-3.10;99.90;;;;;;5072786;28;20020;-41
2022/11/19 08:26:33;;;;;;;25.90;14.48;;;-3.10;99.90;;;;;;5091545;28;20063;-41
2022/11/19 08:28:59;;;;;;;24.23;12.80;;;-3.00;99.90;;;;;;5092184;28;20055;-40
2022/11/19 08:31:24;;;;;;;30.45;14.75;;;-3.00;99.90;;;;;;5083029;28;20533;-40
2022/11/19 08:33:49;;;;;;;27.23;14.85;;;-3.00;99.90;;;;;;5100540;28;20054;-40
2022/11/19 08:36:15;;;;;;;32.42;14.63;;;-2.90;99.90;;;;;;5094361;28;20019;-40
2022/11/19 08:38:40;;;;;;;27.08;14.70;;;-2.90;99.90;;;;;;5096067;28;20059;-40
2022/11/19 08:43:50;;;;;;;35.13;17.30;;;-2.70;99.90;;;;;;5112718;28;20072;-40
2022/11/19 08:46:15;;;;;;;34.20;16.55;;;-2.70;99.90;;;;;;5112840;28;20028;-40
2022/11/19 08:48:41;;;;;;;33.85;16.63;;;-2.60;99.90;;;;;;5112520;28;20371;-40
2022/11/19 08:51:09;;;;;;;31.98;17.00;;;-2.60;99.90;;;;;;5112118;28;20019;-40
2022/11/19 08:53:34;;;;;;;33.90;17.45;;;-2.50;99.90;;;;;;5112021;28;20035;-41
2022/11/19 08:56:00;;;;;;;32.72;16.65;;;-2.40;99.90;;;;;;5073966;28;20028;-40
2022/11/19 08:58:26;;;;;;;30.77;15.65;;;-2.30;99.90;;;;;;5073673;28;20130;-40
2022/11/19 09:00:51;;;;;;;29.05;16.15;;;-2.20;99.90;;;;;;5073193;28;20020;-41
2022/11/19 09:03:17;;;;;;;28.20;15.82;;;-2.10;99.90;;;;;;5091860;28;20374;-40
2022/11/19 09:05:42;;;;;;;27.33;14.30;;;-2.00;99.90;;;;;;5091913;28;20048;-41
2022/11/19 09:08:08;;;;;;;28.80;15.10;;;-2.00;99.90;;;;;;5083955;28;20043;-45
2022/11/19 09:10:35;;;;;;;28.40;14.80;;;-1.90;99.90;;;;;;5097339;28;20027;-41
2022/11/19 09:13:01;;;;;;;28.13;13.77;;;-1.80;99.90;;;;;;5111999;28;20031;-41
2022/11/19 09:15:27;;;;;;;27.83;14.27;;;-1.70;99.90;;;;;;5112059;28;20038;-41
2022/11/19 09:17:52;;;;;;;19.90;11.68;;;-1.60;99.90;;;;;;5112090;28;20027;-40
2022/11/19 09:20:18;;;;;;;20.17;11.50;;;-1.60;99.90;;;;;;5092307;28;20023;-40
2022/11/19 09:22:44;;;;;;;19.88;10.63;;;-1.50;99.90;;;;;;5111793;28;20073;-40
2022/11/19 09:25:09;;;;;;;19.55;10.15;;;-1.40;99.90;;;;;;5093722;27;20019;-40
2022/11/19 09:27:35;;;;;;;18.30;10.40;;;-1.30;99.90;;;;;;5111455;28;20024;-40
2022/11/19 09:30:01;;;;;;;21.88;11.40;;;-1.10;99.90;;;;;;5111368;28;20024;-40
2022/11/19 09:32:27;;;;;;;21.20;10.35;;;-1.00;99.90;;;;;;5111687;28;20030;-40
2022/11/19 09:34:53;;;;;;;18.70;10.95;;;-1.00;99.90;;;;;;5111699;28;20023;-40
2022/11/19 09:37:19;;;;;;;20.83;10.98;;;-0.90;99.90;;;;;;5107164;28;20086;-40
2022/11/19 09:39:44;;;;;;;16.52;9.63;;;-0.80;99.90;;;;;;5090671;28;20467;-40
2022/11/19 09:42:18;;;;;;;17.83;11.00;;;-0.70;99.90;;;;;;5111046;28;20016;-41
2022/11/19 09:44:56;;;;;;;18.45;10.65;;;-0.60;99.90;;;;;;5101094;28;20140;-46
2022/11/19 09:47:41;;;;;;;16.70;9.60;;;-0.50;99.90;;;;;;5083726;28;20431;-41
2022/11/19 09:50:18;;;;;;;15.27;9.60;;;-0.40;99.90;;;;;;5090676;28;20032;-41
2022/11/19 09:52:59;;;;;;;17.13;10.30;;;-0.30;99.90;;;;;;5090575;28;20024;-40
2022/11/19 09:55:36;;;;;;;16.83;10.05;;;-0.30;99.90;;;;;;5072404;28;20421;-41
2022/11/19 09:58:06;;;;;;;19.33;10.98;;;-0.10;99.90;;;;;;5090798;28;20028;-41
2022/11/19 10:00:32;;;;;;;17.55;9.85;;;0.00;99.90;;;;;;5090255;28;20134;-41
2022/11/19 10:03:01;;;;;;;20.65;11.02;;;0.10;99.90;;;;;;5090466;28;20107;-41
2022/11/19 10:05:35;;;;;;;18.35;11.65;;;0.40;99.90;;;;;;5090703;28;20021;-41
2022/11/19 10:08:32;;;;;;;17.05;10.70;;;1.60;99.90;;;;;;5090150;28;20064;-39
2022/11/19 10:11:06;;;;;;;13.77;10.07;;;4.10;99.90;;;;;;5088455;28;20039;-41
2022/11/19 10:13:38;;;;;;;12.52;9.90;;;6.30;99.90;;;;;;5110460;28;20106;-41
2022/11/19 10:16:30;;;;;;;12.50;8.60;;;8.50;99.90;;;;;;5110065;28;20035;-42
2022/11/19 10:19:30;;;;;;;10.13;7.90;;;10.10;95.30;;;;;;5110084;28;20011;-41
2022/11/19 10:22:14;;;;;;;10.23;8.23;;;11.60;92.00;;;;;;5071875;28;20232;-44
2022/11/19 10:24:43;;;;;;;9.43;8.25;;;12.60;88.90;;;;;;5092057;28;20447;-42
2022/11/19 10:27:34;;;;;;;10.13;7.70;;;13.60;83.40;;;;;;5098173;28;20139;-41
2022/11/19 10:30:05;;;;;;;8.90;7.57;;;14.40;78.20;;;;;;5099539;28;20616;-41
2022/11/19 10:32:37;;;;;;;9.23;7.18;;;14.30;70.10;;;;;;5110598;28;20032;-40
2022/11/19 10:35:14;;;;;;;10.27;7.65;;;14.60;69.70;;;;;;5110666;28;20031;-42
2022/11/19 10:37:51;;;;;;;9.70;7.40;;;14.60;67.30;;;;;;5104998;28;20518;-41
2022/11/19 10:40:20;;;;;;;7.72;6.93;;;14.60;61.70;;;;;;5081391;28;20016;-41
2022/11/19 10:42:54;;;;;;;8.00;6.87;;;14.40;66.60;;;;;;5090053;28;20032;-42
2022/11/19 10:45:26;;;;;;;8.80;7.90;;;14.90;65.00;;;;;;5086106;28;20331;-42
2022/11/19 10:48:23;;;;;;;9.07;7.90;;;15.00;61.50;;;;;;5068604;28;20031;-40
2022/11/19 10:50:51;;;;;;;8.05;7.18;;;14.80;63.70;;;;;;5109923;28;20024;-41
2022/11/19 10:53:31;;;;;;;7.97;7.07;;;14.50;63.00;;;;;;5096937;28;20048;-40
2022/11/19 10:56:21;;;;;;;9.40;6.45;;;14.60;63.10;;;;;;5098206;28;20107;-40
2022/11/19 10:58:56;;;;;;;7.40;6.18;;;15.00;62.90;;;;;;5089024;28;20038;-40
2022/11/19 11:01:32;;;;;;;6.95;6.10;;;15.10;61.50;;;;;;5071303;28;20525;-40
2022/11/19 11:04:04;;;;;;;8.15;7.35;;;15.50;60.20;;;;;;5089587;28;20020;-40
2022/11/19 11:06:54;;;;;;;8.13;6.85;;;15.50;60.00;;;;;;5089835;28;20039;-43
2022/11/19 11:09:40;;;;;;;6.63;5.53;;;15.50;60.80;;;;;;5089130;28;20020;-41
2022/11/19 11:15:15;;;;;;;6.22;4.95;;;15.80;58.60;;;;;;5089930;28;20031;-41
2022/11/19 11:17:43;;;;;;;6.07;5.43;;;15.30;60.30;;;;;;5089600;28;20027;-40
2022/11/19 11:20:14;;;;;;;7.28;5.63;;;15.40;59.00;;;;;;5089147;28;20358;-41
2022/11/19 11:22:41;;;;;;;6.80;5.60;;;14.70;58.10;;;;;;5082797;28;20031;-42
2022/11/19 11:25:27;;;;;;;8.57;6.38;;;14.70;60.70;;;;;;5090722;28;20426;-40
2022/11/19 11:28:11;;;;;;;6.28;5.15;;;14.40;60.80;;;;;;5110287;28;20058;-41
2022/11/19 11:30:36;;;;;;;6.03;4.82;;;14.40;60.00;;;;;;5101998;28;20020;-41
2022/11/19 11:33:25;;;;;;;6.15;5.18;;;14.40;57.90;;;;;;5090946;28;20038;-42
2022/11/19 11:35:53;;;;;;;6.50;5.63;;;14.30;58.90;;;;;;5109693;28;20023;-41
2022/11/19 11:38:22;;;;;;;8.48;5.55;;;13.90;59.00;;;;;;5100301;28;20028;-40
2022/11/19 11:41:03;;;;;;;6.53;5.85;;;13.80;59.40;;;;;;5097131;28;20016;-41
2022/11/19 11:43:31;;;;;;;7.40;6.07;;;13.40;61.30;;;;;;5111989;28;20567;-40
2022/11/19 11:46:00;;;;;;;8.02;6.18;;;13.30;60.10;;;;;;5113711;28;20520;-41
2022/11/19 11:48:40;;;;;;;6.78;6.07;;;13.30;60.60;;;;;;5075143;28;20020;-41
2022/11/19 11:51:06;;;;;;;6.80;6.05;;;13.00;62.80;;;;;;5093446;28;20027;-41
2022/11/19 11:53:32;;;;;;;5.90;5.30;;;12.80;59.90;;;;;;5113269;28;20031;-41
2022/11/19 11:56:00;;;;;;;7.55;6.55;;;12.30;60.30;;;;;;5093610;28;20032;-40
2022/11/19 11:58:33;;;;;;;8.25;5.95;;;12.30;61.70;;;;;;5093027;28;20597;-41
2022/11/19 12:01:13;;;;;;;6.63;5.60;;;12.30;62.70;;;;;;5092409;28;20016;-41
2022/11/19 12:03:53;;;;;;;9.43;6.43;;;12.00;65.20;;;;;;5092228;28;20663;-40
2022/11/19 12:06:23;;;;;;;7.68;6.43;;;12.20;62.20;;;;;;5091680;28;20580;-40
2022/11/19 12:08:57;;;;;;;7.13;6.28;;;12.30;62.60;;;;;;5073416;28;20039;-40
2022/11/19 12:11:53;;;;;;;7.07;6.30;;;11.90;64.60;;;;;;5091097;28;20062;-40
2022/11/19 12:14:40;;;;;;;7.30;6.40;;;11.30;63.60;;;;;;5091616;28;20023;-40
2022/11/19 12:17:43;;;;;;;7.00;6.22;;;11.30;64.60;;;;;;5086260;28;20028;-40
2022/11/19 12:20:44;;;;;;;8.40;5.90;;;10.60;65.50;;;;;;5101717;28;20024;-39
2022/11/19 12:23:47;;;;;;;10.18;6.15;;;9.50;66.60;;;;;;5111486;28;20024;-39
2022/11/19 12:26:40;;;;;;;8.75;7.07;;;8.70;69.70;;;;;;5111696;28;20031;-39
2022/11/19 12:29:17;;;;;;;10.27;7.28;;;7.60;73.50;;;;;;5093272;28;20556;-40
2022/11/19 12:32:22;;;;;;;8.43;6.35;;;7.10;75.20;;;;;;5111786;28;20059;-41
2022/11/19 12:35:14;;;;;;;10.27;6.95;;;6.30;76.10;;;;;;5111511;28;20023;-40
2022/11/19 12:38:02;;;;;;;8.68;6.63;;;6.10;77.30;;;;;;5112156;28;20068;-40
2022/11/19 12:40:46;;;;;;;13.35;6.85;;;5.90;78.80;;;;;;5095657;28;20736;-40
2022/11/19 12:43:18;;;;;;;8.20;6.22;;;5.70;80.40;;;;;;5093850;28;20365;-39
2022/11/19 12:45:44;;;;;;;9.80;6.38;;;5.50;80.80;;;;;;5111734;28;20093;-40
2022/11/19 12:48:45;;;;;;;8.50;5.55;;;5.30;80.90;;;;;;5111504;28;20478;-40
2022/11/19 12:51:15;;;;;;;11.30;6.60;;;5.00;82.20;;;;;;5071161;28;20066;-40
2022/11/19 12:54:15;;;;;;;8.98;6.25;;;4.70;83.50;;;;;;5110774;28;20015;-39
2022/11/19 12:56:57;;;;;;;9.77;6.15;;;4.60;85.40;;;;;;5090748;28;20056;-40
2022/11/19 12:59:29;;;;;;;10.73;6.68;;;4.30;84.90;;;;;;5090532;28;20093;-40
2022/11/19 13:01:58;;;;;;;9.07;6.40;;;4.10;86.10;;;;;;5090649;28;20028;-40
2022/11/19 13:04:32;;;;;;;8.93;6.43;;;4.00;87.00;;;;;;5091047;28;20095;-40
2022/11/19 13:07:18;;;;;;;8.68;6.35;;;3.90;86.70;;;;;;5091198;28;20119;-40
2022/11/19 13:10:06;;;;;;;9.75;6.07;;;3.90;86.80;;;;;;5089993;28;20514;-40
2022/11/19 13:12:39;;;;;;;6.47;5.13;;;3.80;89.10;;;;;;5085994;28;20601;-40
2022/11/19 13:15:25;;;;;;;9.18;5.85;;;3.80;88.70;;;;;;5073550;28;20031;-40
2022/11/19 13:17:54;;;;;;;7.78;5.53;;;3.70;90.30;;;;;;5091895;28;20020;-40
2022/11/19 13:20:50;;;;;;;7.97;5.60;;;3.60;89.40;;;;;;5072909;28;20032;-40
2022/11/19 13:23:25;;;;;;;9.80;6.28;;;3.70;90.50;;;;;;5073252;28;20526;-41
2022/11/19 13:25:58;;;;;;;7.60;5.28;;;3.60;90.60;;;;;;5091320;28;20035;-40
2022/11/19 13:28:47;;;;;;;6.93;5.35;;;3.40;90.70;;;;;;5091430;28;20028;-41
2022/11/19 13:31:29;;;;;;;9.40;5.55;;;3.40;90.70;;;;;;5072643;28;20032;-40
2022/11/19 13:34:17;;;;;;;8.13;5.32;;;3.30;91.80;;;;;;5091351;28;20039;-40
2022/11/19 13:36:51;;;;;;;7.85;5.38;;;3.20;90.80;;;;;;5090425;28;20036;-41
2022/11/19 13:39:31;;;;;;;10.75;5.47;;;3.10;91.70;;;;;;5089451;28;20103;-40
2022/11/19 13:44:43;;;;;;;10.32;5.50;;;3.00;92.20;;;;;;5111660;28;20712;-40
2022/11/19 13:47:35;;;;;;;10.43;5.68;;;2.90;92.40;;;;;;5111454;28;20031;-40
2022/11/19 13:50:21;;;;;;;11.85;5.45;;;3.00;93.50;;;;;;5096815;28;20061;-41
2022/11/19 13:53:04;;;;;;;11.10;6.32;;;3.00;93.80;;;;;;5111552;28;20077;-40
2022/11/19 13:55:35;;;;;;;11.57;6.40;;;3.00;94.30;;;;;;5092117;28;20016;-40
2022/11/19 13:58:18;;;;;;;9.68;6.47;;;3.00;94.40;;;;;;5100710;28;20022;-40
2022/11/19 14:01:07;;;;;;;9.70;6.15;;;2.90;96.30;;;;;;5092369;28;20049;-40
2022/11/19 14:03:42;;;;;;;11.30;6.35;;;2.80;96.60;;;;;;5111176;28;20031;-40
2022/11/19 14:06:23;;;;;;;9.10;5.75;;;2.70;97.70;;;;;;5110229;28;20028;-40
2022/11/19 14:09:04;;;;;;;9.27;6.28;;;2.70;97.30;;;;;;5111065;28;20020;-40
2022/11/19 14:12:02;;;;;;;12.30;5.97;;;2.70;97.40;;;;;;5108946;28;20077;-41
2022/11/19 14:26:40;;;;;;;10.50;6.53;;;2.40;99.60;;;;;;5090420;28;20457;-40
2022/11/19 14:29:19;;;;;;;9.63;5.82;;;2.40;99.40;;;;;;5086226;28;20504;-39
2022/11/19 14:31:59;;;;;;;8.32;5.40;;;2.30;99.90;;;;;;5087830;28;20025;-40
2022/11/19 14:34:26;;;;;;;;;;;2.20;99.90;;;;;;5097914;28;20482;-40
2022/11/19 14:36:56;;;;;;;9.60;5.88;;;2.20;99.90;;;;;;5099051;28;19916;-40
2022/11/19 14:39:26;;;;;;;10.53;6.53;;;2.20;99.90;;;;;;5107041;28;20103;-40
2022/11/19 14:42:21;;;;;;;13.32;6.75;;;2.10;99.90;;;;;;5090357;28;20351;-40
2022/11/19 14:45:01;;;;;;;10.35;6.68;;;2.00;99.90;;;;;;5110588;28;20034;-40
2022/11/19 14:47:31;;;;;;;8.65;5.90;;;2.00;99.90;;;;;;5110714;28;20024;-40
2022/11/19 14:49:58;;;;;;;10.80;6.80;;;2.00;99.90;;;;;;5110135;28;20023;-40
2022/11/19 14:52:27;;;;;;;14.48;6.30;;;1.90;99.90;;;;;;5110102;28;20027;-40
2022/11/19 14:54:57;;;;;;;10.73;6.82;;;1.90;99.90;;;;;;5099509;28;20517;-40
2022/11/19 14:57:30;;;;;;;10.05;6.50;;;1.80;99.90;;;;;;5089932;28;20032;-40
2022/11/19 15:00:03;;;;;;;12.95;6.03;;;1.70;99.90;;;;;;5089659;28;20554;-40
2022/11/19 15:02:44;;;;;;;12.05;6.47;;;1.80;99.90;;;;;;5089960;28;20012;-44
2022/11/19 15:05:32;;;;;;;11.32;6.07;;;1.70;99.90;;;;;;5090189;28;20448;-40
2022/11/19 15:08:16;;;;;;;10.18;6.43;;;1.70;99.90;;;;;;5089623;28;20055;-40
2022/11/19 15:10:47;;;;;;;11.45;6.80;;;1.60;99.90;;;;;;5063989;28;20035;-40
2022/11/19 15:13:25;;;;;;;11.57;6.85;;;1.50;99.90;;;;;;5101571;28;20028;-41
2022/11/19 15:15:57;;;;;;;11.48;7.00;;;1.50;99.90;;;;;;5110325;28;20031;-40
2022/11/19 15:18:35;;;;;;;12.88;7.47;;;1.40;99.90;;;;;;5093334;28;20023;-41
2022/11/19 15:21:38;;;;;;;13.38;7.95;;;1.40;99.90;;;;;;5113014;28;20049;-40
2022/11/19 15:24:43;;;;;;;12.75;7.43;;;1.30;99.90;;;;;;5113506;28;20402;-40
2022/11/19 15:27:37;;;;;;;12.73;7.82;;;1.30;99.90;;;;;;5102943;28;20074;-40
2022/11/19 15:30:19;;;;;;;13.77;7.93;;;1.20;99.90;;;;;;5095843;28;20051;-41
2022/11/19 15:33:03;;;;;;;11.98;6.97;;;1.20;99.90;;;;;;5096526;28;20028;-40
2022/11/19 15:36:01;;;;;;;13.25;7.45;;;1.10;99.90;;;;;;5076531;28;20471;-40
2022/11/19 15:38:39;;;;;;;15.27;8.05;;;1.10;99.90;;;;;;5092222;28;20112;-41
2022/11/19 15:41:05;;;;;;;12.85;8.25;;;1.10;99.90;;;;;;5076661;28;20051;-41
2022/11/19 15:43:41;;;;;;;13.05;7.72;;;1.00;99.90;;;;;;5100823;28;20520;-40
2022/11/19 15:46:17;;;;;;;14.30;7.75;;;1.00;99.90;;;;;;5091918;28;20032;-41
2022/11/19 15:49:13;;;;;;;14.27;8.40;;;0.90;99.90;;;;;;5094771;28;20039;-40
2022/11/19 15:52:04;;;;;;;13.23;8.70;;;0.90;99.90;;;;;;5095102;28;20028;-40
2022/11/19 15:54:32;;;;;;;13.63;8.38;;;0.90;99.90;;;;;;5092953;28;20055;-40
2022/11/19 15:57:01;;;;;;;15.00;8.20;;;0.80;99.90;;;;;;5093401;28;20139;-41
2022/11/19 15:59:29;;;;;;;15.02;8.52;;;0.70;99.90;;;;;;5092364;28;20028;-40
2022/11/19 16:02:00;;;;;;;12.25;7.80;;;0.70;99.90;;;;;;5104866;28;20496;-41
2022/11/19 16:04:37;;;;;;;14.25;8.68;;;0.70;99.90;;;;;;5096507;28;20076;-40
2022/11/19 16:07:06;;;;;;;15.98;9.15;;;0.60;99.90;;;;;;5093839;28;20048;-41
2022/11/19 16:09:33;;;;;;;13.57;8.82;;;0.60;99.90;;;;;;5103271;28;20722;-41
2022/11/19 16:17:46;;;;;;;20.92;9.35;;;0.60;99.90;;;;;;5096852;28;20080;-40
2022/11/19 16:20:11;;;;;;;15.30;9.18;;;0.60;99.90;;;;;;5094120;28;20023;-41
2022/11/19 16:22:57;;;;;;;17.20;8.20;;;0.50;99.90;;;;;;5102896;28;20011;-40
2022/11/19 16:25:38;;;;;;;14.35;8.35;;;0.60;99.90;;;;;;5096037;28;20012;-40
2022/11/19 16:28:04;;;;;;;;;;;0.50;99.90;;;;;;5090700;28;20107;-40
2022/11/19 16:30:40;;;;;;;16.40;9.18;;;0.50;99.90;;;;;;5100400;28;19994;-41
2022/11/19 16:33:24;;;;;;;17.75;9.82;;;0.50;99.90;;;;;;5096879;28;20024;-40
2022/11/19 16:35:51;;;;;;;14.05;8.25;;;0.50;99.90;;;;;;5097067;28;20158;-40
2022/11/19 16:38:25;;;;;;;14.43;9.15;;;0.50;99.90;;;;;;5102563;28;20019;-40
2022/11/19 16:43:35;;;;;;;16.55;9.63;;;0.40;99.90;;;;;;5096662;28;20522;-40
2022/11/19 16:46:03;;;;;;;14.57;8.45;;;0.50;99.90;;;;;;5099207;28;20028;-40
2022/11/19 16:48:41;;;;;;;14.20;8.82;;;0.40;99.90;;;;;;5089704;28;20053;-40
2022/11/19 16:51:44;;;;;;;18.52;9.70;;;0.50;99.90;;;;;;5096532;28;20024;-40
2022/11/19 16:54:10;;;;;;;15.63;8.82;;;0.50;99.90;;;;;;5072899;28;20750;-40
2022/11/19 16:56:44;;;;;;;15.23;8.90;;;0.50;99.90;;;;;;5084370;28;20110;-40
2022/11/19 16:59:19;;;;;;;16.92;9.43;;;0.40;99.90;;;;;;5083814;28;20032;-41
2022/11/19 17:01:51;;;;;;;18.67;8.80;;;0.50;99.90;;;;;;5088442;28;20063;-40
2022/11/19 17:04:17;;;;;;;18.13;9.13;;;0.50;99.90;;;;;;5081905;28;20561;-41
2022/11/19 17:06:43;;;;;;;15.13;9.20;;;0.40;99.90;;;;;;5103552;28;20066;-40
2022/11/19 17:09:32;;;;;;;14.43;9.02;;;0.40;99.90;;;;;;5099421;28;20055;-42
2022/11/19 17:14:46;;;;;;;12.27;8.50;;;0.40;99.90;;;;;;5105075;28;20085;-40
2022/11/19 17:17:36;;;;;;;13.82;8.65;;;0.40;99.90;;;;;;5080585;28;20028;-40
2022/11/19 17:20:02;;;;;;;14.20;8.30;;;0.40;99.90;;;;;;5088353;28;20073;-39
2022/11/19 17:22:35;;;;;;;16.00;9.40;;;0.40;99.90;;;;;;5085370;28;20035;-40
2022/11/19 17:25:03;;;;;;;17.05;9.32;;;0.40;99.90;;;;;;5070453;28;20054;-39
2022/11/19 17:27:34;;;;;;;15.52;9.45;;;0.40;99.90;;;;;;5092378;28;20502;-41
2022/11/19 17:30:20;;;;;;;14.25;8.65;;;0.50;99.90;;;;;;5055270;28;20106;-40
2022/11/19 17:32:55;;;;;;;19.63;9.93;;;0.40;99.90;;;;;;5072256;28;20164;-44
2022/11/19 17:35:45;;;;;;;16.63;9.43;;;0.40;99.90;;;;;;5086330;28;20058;-40
2022/11/19 17:38:12;;;;;;;15.38;9.20;;;0.40;99.90;;;;;;5071092;28;20036;-39
2022/11/19 17:40:43;;;;;;;15.27;9.70;;;0.30;99.90;;;;;;5085196;28;20031;-40
2022/11/19 17:45:54;;;;;;;17.13;9.82;;;0.30;99.90;;;;;;5088302;28;20059;-40
2022/11/19 17:48:22;;;;;;;20.50;12.02;;;0.30;99.90;;;;;;5093281;28;20518;-41
2022/11/19 17:50:48;;;;;;;18.95;10.57;;;0.20;99.90;;;;;;5088566;28;20050;-41
2022/11/19 17:53:14;;;;;;;19.58;10.95;;;0.20;99.90;;;;;;5084906;28;20055;-41
2022/11/19 17:55:42;;;;;;;22.40;11.68;;;0.20;99.90;;;;;;5070884;28;20072;-41
2022/11/19 17:58:07;;;;;;;19.98;11.27;;;0.20;99.90;;;;;;5089254;28;20039;-40
2022/11/19 18:00:33;;;;;;;19.10;11.07;;;0.20;99.90;;;;;;5067010;28;20475;-41
2022/11/19 18:02:59;;;;;;;22.27;11.88;;;0.10;99.90;;;;;;5070190;28;20148;-40
2022/11/19 18:05:30;;;;;;;19.63;11.77;;;0.20;99.90;;;;;;5088436;28;20032;-40
2022/11/19 18:07:55;;;;;;;19.27;10.65;;;0.20;99.90;;;;;;5089286;28;20038;-40
2022/11/19 18:10:21;;;;;;;21.73;11.50;;;0.10;99.90;;;;;;5084499;28;20020;-40
2022/11/19 18:12:47;;;;;;;22.70;12.82;;;0.10;99.90;;;;;;5097425;28;20047;-40
2022/11/19 18:15:16;;;;;;;20.65;12.15;;;0.20;99.90;;;;;;5064759;28;20028;-40
2022/11/19 18:17:42;;;;;;;20.88;11.23;;;0.10;99.90;;;;;;5096397;28;20358;-40
2022/11/19 18:20:08;;;;;;;20.98;11.20;;;0.20;99.90;;;;;;5104112;28;20035;-40
2022/11/19 18:22:33;;;;;;;21.20;11.63;;;0.10;99.90;;;;;;5088877;28;20028;-40
2022/11/19 18:24:59;;;;;;;21.40;11.65;;;0.20;99.90;;;;;;5089513;28;20028;-40
2022/11/19 18:27:25;;;;;;;19.63;11.27;;;0.20;99.90;;;;;;5084260;28;20678;-41
2022/11/19 18:29:50;;;;;;;24.38;12.27;;;0.20;99.90;;;;;;5069954;28;20016;-40
2022/11/19 18:32:16;;;;;;;24.10;11.95;;;0.20;99.90;;;;;;5088104;28;20531;-40
2022/11/19 18:34:42;;;;;;;21.35;12.07;;;0.20;99.90;;;;;;5089177;28;20103;-40
2022/11/19 18:37:08;;;;;;;21.92;12.55;;;0.20;99.90;;;;;;5081844;28;20031;-40
2022/11/19 18:39:33;;;;;;;20.65;11.88;;;0.20;99.90;;;;;;5088067;28;20028;-40
2022/11/19 18:41:59;;;;;;;20.45;11.73;;;0.20;99.90;;;;;;5087899;28;20744;-40
2022/11/19 18:44:33;;;;;;;19.88;11.65;;;0.20;99.90;;;;;;5069996;28;20069;-40
2022/11/19 18:46:59;;;;;;;23.95;12.45;;;0.10;99.90;;;;;;5069867;28;20587;-40
2022/11/19 18:49:25;;;;;;;24.55;13.43;;;0.20;99.90;;;;;;5069438;28;20086;-39
2022/11/19 18:51:51;;;;;;;24.38;13.35;;;0.20;99.90;;;;;;5070621;28;21143;-41
2022/11/19 18:54:16;;;;;;;21.70;12.18;;;0.10;99.90;;;;;;5087745;28;20030;-41
2022/11/19 18:56:42;;;;;;;21.42;12.32;;;0.10;99.90;;;;;;5069956;28;20058;-40
2022/11/19 18:59:13;;;;;;;21.92;12.30;;;0.10;99.90;;;;;;5088116;28;20012;-42
2022/11/19 19:01:39;;;;;;;20.80;13.02;;;0.10;99.90;;;;;;5093924;28;20107;-41
2022/11/19 19:04:05;;;;;;;26.25;14.50;;;0.20;99.90;;;;;;5071272;28;20566;-42
2022/11/19 19:06:31;;;;;;;21.63;12.00;;;0.10;99.90;;;;;;5088625;28;20063;-40
2022/11/19 19:08:56;;;;;;;25.30;14.35;;;0.20;99.90;;;;;;5089023;28;20051;-39
2022/11/19 19:14:06;;;;;;;20.15;11.57;;;0.10;99.90;;;;;;5089699;28;20118;-38
2022/11/19 19:16:33;;;;;;;22.23;12.70;;;0.20;99.90;;;;;;5085624;28;20107;-45
2022/11/19 19:19:00;;;;;;;19.05;11.25;;;0.20;99.90;;;;;;5071116;28;20027;-40
2022/11/19 19:21:25;;;;;;;21.45;11.88;;;0.20;99.90;;;;;;5078639;28;20020;-41
2022/11/19 19:23:51;;;;;;;19.48;11.75;;;0.30;99.90;;;;;;5089249;28;20115;-41
2022/11/19 19:26:17;;;;;;;17.90;10.77;;;0.20;99.90;;;;;;5088768;28;20032;-40
2022/11/19 19:28:51;;;;;;;20.48;11.18;;;0.30;99.90;;;;;;5089569;28;20052;-39
2022/11/19 19:31:18;;;;;;;20.00;11.38;;;0.30;99.90;;;;;;5088521;28;20665;-41
2022/11/19 19:33:46;;;;;;;18.98;11.05;;;0.30;99.90;;;;;;5075901;28;20547;-40
2022/11/19 19:36:13;;;;;;;21.65;11.25;;;0.30;99.90;;;;;;5088720;28;20028;-40
2022/11/19 19:38:42;;;;;;;22.52;12.85;;;0.40;99.90;;;;;;5089692;28;20082;-40
2022/11/19 19:41:12;;;;;;;18.77;11.23;;;0.30;99.90;;;;;;5088425;28;20390;-41
2022/11/19 19:43:38;;;;;;;18.73;11.85;;;0.30;99.90;;;;;;5076492;28;20027;-40
2022/11/19 19:46:06;;;;;;;22.17;12.18;;;0.30;99.90;;;;;;5088697;28;20028;-40
2022/11/19 19:48:32;;;;;;;23.25;12.18;;;0.30;99.90;;;;;;5077191;28;20085;-40
2022/11/19 19:50:57;;;;;;;22.40;12.73;;;0.30;99.90;;;;;;5070892;28;20028;-41
2022/11/19 19:53:23;;;;;;;21.88;12.25;;;0.20;99.90;;;;;;5078474;28;20020;-40
2022/11/19 19:55:48;;;;;;;22.52;12.50;;;0.10;99.90;;;;;;5089365;28;20038;-41
2022/11/19 19:58:14;;;;;;;17.98;11.05;;;0.20;99.90;;;;;;5088920;28;20077;-41
2022/11/19 20:00:40;;;;;;;23.00;12.40;;;0.10;99.90;;;;;;5075516;28;20681;-41
2022/11/19 20:03:05;;;;;;;21.10;12.93;;;0.10;99.90;;;;;;5089693;28;20688;-44
2022/11/19 20:05:31;;;;;;;17.63;11.32;;;0.10;99.90;;;;;;5082341;28;20465;-45
2022/11/19 20:07:56;;;;;;;21.98;11.75;;;0.00;99.90;;;;;;5093166;28;20051;-45
2022/11/19 20:10:21;;;;;;;21.80;12.80;;;0.00;99.90;;;;;;5092333;28;20020;-40
2022/11/19 20:15:33;;;;;;;21.40;12.85;;;-0.10;99.90;;;;;;5092451;28;20090;-41
2022/11/19 20:17:58;;;;;;;22.20;13.30;;;-0.10;99.90;;;;;;5092472;28;20028;-40
2022/11/19 20:20:23;;;;;;;24.25;14.43;;;-0.10;99.90;;;;;;5088008;28;20071;-41
2022/11/19 20:22:49;;;;;;;25.42;14.23;;;-0.10;99.90;;;;;;5092458;28;20069;-41
2022/11/19 20:25:15;;;;;;;27.83;14.48;;;0.00;99.90;;;;;;5091451;28;20051;-45
2022/11/19 20:27:40;;;;;;;24.55;13.25;;;0.00;99.90;;;;;;5091801;28;20024;-41
2022/11/19 20:30:06;;;;;;;25.05;13.85;;;0.10;99.90;;;;;;5092458;28;20085;-44
2022/11/19 20:32:32;;;;;;;25.77;13.95;;;0.10;99.90;;;;;;5091167;28;20261;-41
2022/11/19 20:34:57;;;;;;;26.85;13.38;;;0.10;99.90;;;;;;5092075;28;20470;-45
2022/11/19 20:37:23;;;;;;;25.35;12.88;;;0.10;99.90;;;;;;5091484;28;20474;-45
2022/11/19 20:39:48;;;;;;;24.95;14.02;;;0.10;99.90;;;;;;5074754;28;20042;-45
2022/11/19 20:45:00;;;;;;;27.05;15.07;;;0.10;99.90;;;;;;5048960;28;20028;-44
2022/11/19 20:47:25;;;;;;;27.38;14.80;;;0.10;99.90;;;;;;5072825;28;20032;-46
2022/11/19 20:49:51;;;;;;;25.85;14.05;;;0.10;99.90;;;;;;5091582;28;20093;-45
2022/11/19 20:52:17;;;;;;;25.92;15.23;;;0.00;99.90;;;;;;5091650;28;20031;-46
2022/11/19 20:54:43;;;;;;;26.02;14.50;;;0.00;99.90;;;;;;5099811;28;20020;-40
2022/11/19 20:57:09;;;;;;;26.58;14.15;;;0.00;99.90;;;;;;5092552;28;20017;-40
2022/11/19 20:59:34;;;;;;;28.33;15.32;;;-0.10;99.90;;;;;;5090851;28;20028;-40
2022/11/19 21:02:00;;;;;;;27.80;14.93;;;-0.10;99.90;;;;;;5091697;28;20044;-39
2022/11/19 21:04:27;;;;;;;29.15;16.27;;;-0.20;99.90;;;;;;5073366;28;20028;-39